sensor_id;sensor_type;location;lat;lon;timestamp;pressure;altitude;pressure_sealevel;temperature;humidity
3096;BME280;1558;42.700;23.360;2023-04-07T00:00:41;95073.97;;;1.52;92.73
3096;BME280;1558;42.700;23.360;2023-04-07T00:03:09;95066.41;;;1.35;94.90
3096;BME280;1558;42.700;23.360;2023-04-07T00:05:37;95073.81;;;1.38;96.54
3096;BME280;1558;42.700;23.360;2023-04-07T00:08:05;95072.19;;;1.42;97.75
3096;BME280;1558;42.700;23.360;2023-04-07T00:10:33;95076.88;;;1.50;99.04
3096;BME280;1558;42.700;23.360;2023-04-07T00:13:02;95061.88;;;1.35;98.87
3096;BME280;1558;42.700;23.360;2023-04-07T00:15:30;95075.25;;;1.25;99.05
3096;BME280;1558;42.700;23.360;2023-04-07T00:17:58;95081.38;;;1.26;99.62
3096;BME280;1558;42.700;23.360;2023-04-07T00:20:27;95065.47;;;1.21;100.00
3096;BME280;1558;42.700;23.360;2023-04-07T00:22:55;95074.22;;;1.21;100.00
3096;BME280;1558;42.700;23.360;2023-04-07T00:25:23;95069.34;;;1.33;100.00
3096;BME280;1558;42.700;23.360;2023-04-07T00:27:51;95070.38;;;1.38;100.00
3096;BME280;1558;42.700;23.360;2023-04-07T00:30:20;95064.19;;;1.47;100.00
3096;BME280;1558;42.700;23.360;2023-04-07T00:32:48;95055.16;;;1.72;100.00
3096;BME280;1558;42.700;23.360;2023-04-07T00:35:17;95073.69;;;1.53;100.00
3096;BME280;1558;42.700;23.360;2023-04-07T00:37:45;95054.22;;;1.29;100.00
3096;BME280;1558;42.700;23.360;2023-04-07T00:40:13;95025.75;;;1.06;100.00
3096;BME280;1558;42.700;23.360;2023-04-07T00:42:41;95003.06;;;0.90;100.00
3096;BME280;1558;42.700;23.360;2023-04-07T00:45:09;95067.72;;;1.38;100.00
3096;BME280;1558;42.700;23.360;2023-04-07T00:47:39;94927.28;;;0.45;100.00
3096;BME280;1558;42.700;23.360;2023-04-07T00:50:08;94919.66;;;0.67;100.00
3096;BME280;1558;42.700;23.360;2023-04-07T00:52:36;95067.09;;;1.74;100.00
3096;BME280;1558;42.700;23.360;2023-04-07T00:55:05;95064.31;;;1.61;100.00
3096;BME280;1558;42.700;23.360;2023-04-07T00:57:33;95050.78;;;1.57;100.00
3096;BME280;1558;42.700;23.360;2023-04-07T01:00:01;95017.31;;;1.56;100.00
3096;BME280;1558;42.700;23.360;2023-04-07T01:02:33;95051.69;;;1.95;100.00
3096;BME280;1558;42.700;23.360;2023-04-07T01:05:12;95043.91;;;1.80;100.00
3096;BME280;1558;42.700;23.360;2023-04-07T01:07:49;95047.81;;;1.87;100.00
3096;BME280;1558;42.700;23.360;2023-04-07T01:10:23;95046.84;;;1.78;100.00
3096;BME280;1558;42.700;23.360;2023-04-07T01:13:00;94887.22;;;0.46;100.00
3096;BME280;1558;42.700;23.360;2023-04-07T01:15:29;95057.22;;;1.51;100.00
3096;BME280;1558;42.700;23.360;2023-04-07T01:18:05;95060.84;;;1.60;100.00
3096;BME280;1558;42.700;23.360;2023-04-07T01:20:37;95060.38;;;1.24;100.00
3096;BME280;1558;42.700;23.360;2023-04-07T01:23:06;95058.59;;;1.15;100.00
3096;BME280;1558;42.700;23.360;2023-04-07T01:25:52;95064.00;;;1.05;100.00
3096;BME280;1558;42.700;23.360;2023-04-07T01:28:38;95042.09;;;0.89;100.00
3096;BME280;1558;42.700;23.360;2023-04-07T01:31:11;95057.59;;;1.11;100.00
3096;BME280;1558;42.700;23.360;2023-04-07T01:33:43;95054.41;;;1.09;100.00
3096;BME280;1558;42.700;23.360;2023-04-07T01:36:12;95055.25;;;1.04;100.00
3096;BME280;1558;42.700;23.360;2023-04-07T01:38:42;95005.84;;;0.75;100.00
3096;BME280;1558;42.700;23.360;2023-04-07T01:41:12;95049.72;;;0.96;100.00
3096;BME280;1558;42.700;23.360;2023-04-07T01:43:42;95050.84;;;0.90;100.00
3096;BME280;1558;42.700;23.360;2023-04-07T01:46:13;95047.06;;;0.96;100.00
3096;BME280;1558;42.700;23.360;2023-04-07T01:48:41;95046.81;;;0.97;100.00
3096;BME280;1558;42.700;23.360;2023-04-07T01:51:10;95047.06;;;0.96;100.00
3096;BME280;1558;42.700;23.360;2023-04-07T01:53:43;95040.69;;;0.97;100.00
3096;BME280;1558;42.700;23.360;2023-04-07T01:56:11;95034.91;;;0.90;100.00
3096;BME280;1558;42.700;23.360;2023-04-07T01:58:39;95045.19;;;1.01;100.00
3096;BME280;1558;42.700;23.360;2023-04-07T02:01:08;95034.91;;;0.90;100.00
3096;BME280;1558;42.700;23.360;2023-04-07T02:03:42;95021.50;;;0.76;100.00
3096;BME280;1558;42.700;23.360;2023-04-07T02:06:14;95026.00;;;0.76;100.00
3096;BME280;1558;42.700;23.360;2023-04-07T02:08:46;95036.88;;;0.74;100.00
3096;BME280;1558;42.700;23.360;2023-04-07T02:11:17;95037.34;;;0.81;100.00
3096;BME280;1558;42.700;23.360;2023-04-07T02:13:48;95025.97;;;0.81;100.00
3096;BME280;1558;42.700;23.360;2023-04-07T02:16:19;95039.91;;;0.96;100.00
3096;BME280;1558;42.700;23.360;2023-04-07T02:18:49;95037.44;;;1.05;100.00
3096;BME280;1558;42.700;23.360;2023-04-07T02:21:20;95028.16;;;1.02;100.00
3096;BME280;1558;42.700;23.360;2023-04-07T02:23:48;95034.44;;;1.16;100.00
3096;BME280;1558;42.700;23.360;2023-04-07T02:26:16;95039.69;;;1.21;100.00
3096;BME280;1558;42.700;23.360;2023-04-07T02:28:44;95035.69;;;1.24;100.00
3096;BME280;1558;42.700;23.360;2023-04-07T02:31:12;95035.09;;;1.32;100.00
3096;BME280;1558;42.700;23.360;2023-04-07T02:33:40;95027.41;;;1.30;100.00
3096;BME280;1558;42.700;23.360;2023-04-07T02:36:09;95049.09;;;1.43;100.00
3096;BME280;1558;42.700;23.360;2023-04-07T02:38:37;95035.09;;;1.32;100.00
3096;BME280;1558;42.700;23.360;2023-04-07T02:41:05;95040.13;;;1.33;100.00
3096;BME280;1558;42.700;23.360;2023-04-07T02:43:33;95045.63;;;1.42;100.00
3096;BME280;1558;42.700;23.360;2023-04-07T02:46:01;95035.97;;;1.51;100.00
3096;BME280;1558;42.700;23.360;2023-04-07T02:48:30;95043.66;;;1.53;100.00
3096;BME280;1558;42.700;23.360;2023-04-07T02:50:57;95046.25;;;1.58;100.00
3096;BME280;1558;42.700;23.360;2023-04-07T02:53:27;95051.91;;;1.51;100.00
3096;BME280;1558;42.700;23.360;2023-04-07T02:55:55;95037.66;;;1.42;100.00
3096;BME280;1558;42.700;23.360;2023-04-07T02:58:23;95037.91;;;1.41;100.00
3096;BME280;1558;42.700;23.360;2023-04-07T03:00:51;95037.84;;;1.51;100.00
3096;BME280;1558;42.700;23.360;2023-04-07T03:03:19;95044.97;;;1.55;100.00
3096;BME280;1558;42.700;23.360;2023-04-07T03:05:47;95043.94;;;1.51;100.00
3096;BME280;1558;42.700;23.360;2023-04-07T03:08:15;95011.97;;;1.32;100.00
3096;BME280;1558;42.700;23.360;2023-04-07T03:10:45;95036.09;;;1.65;100.00
3096;BME280;1558;42.700;23.360;2023-04-07T03:13:13;95049.03;;;1.71;100.00
3096;BME280;1558;42.700;23.360;2023-04-07T03:15:42;95035.25;;;1.69;100.00
3096;BME280;1558;42.700;23.360;2023-04-07T03:18:10;95046.56;;;1.80;100.00
3096;BME280;1558;42.700;23.360;2023-04-07T03:20:38;95042.00;;;1.85;100.00
3096;BME280;1558;42.700;23.360;2023-04-07T03:23:07;94993.66;;;1.55;100.00
3096;BME280;1558;42.700;23.360;2023-04-07T03:25:35;95047.31;;;1.85;100.00
3096;BME280;1558;42.700;23.360;2023-04-07T03:28:05;95038.50;;;1.90;100.00
3096;BME280;1558;42.700;23.360;2023-04-07T03:30:33;95034.28;;;1.84;100.00
3096;BME280;1558;42.700;23.360;2023-04-07T03:33:01;95033.72;;;1.63;100.00
3096;BME280;1558;42.700;23.360;2023-04-07T03:35:29;95035.16;;;1.51;100.00
3096;BME280;1558;42.700;23.360;2023-04-07T03:37:57;95036.78;;;1.52;100.00
3096;BME280;1558;42.700;23.360;2023-04-07T03:40:25;95036.78;;;1.52;100.00
3096;BME280;1558;42.700;23.360;2023-04-07T03:42:53;95038.69;;;1.46;100.00
3096;BME280;1558;42.700;23.360;2023-04-07T03:45:22;95026.78;;;1.38;100.00
3096;BME280;1558;42.700;23.360;2023-04-07T03:47:50;95049.31;;;1.46;100.00
3096;BME280;1558;42.700;23.360;2023-04-07T03:50:20;95020.28;;;1.26;100.00
3096;BME280;1558;42.700;23.360;2023-04-07T03:52:48;95047.53;;;1.36;100.00
3096;BME280;1558;42.700;23.360;2023-04-07T03:55:16;95052.88;;;1.31;100.00
3096;BME280;1558;42.700;23.360;2023-04-07T03:57:44;95054.19;;;1.34;100.00
3096;BME280;1558;42.700;23.360;2023-04-07T04:00:13;95057.88;;;1.38;100.00
3096;BME280;1558;42.700;23.360;2023-04-07T04:02:42;95029.91;;;1.17;100.00
3096;BME280;1558;42.700;23.360;2023-04-07T04:05:10;95060.84;;;1.31;100.00
3096;BME280;1558;42.700;23.360;2023-04-07T04:07:38;95056.97;;;1.19;100.00
3096;BME280;1558;42.700;23.360;2023-04-07T04:10:07;95071.78;;;1.30;100.00
3096;BME280;1558;42.700;23.360;2023-04-07T04:12:35;95065.25;;;1.12;100.00
3096;BME280;1558;42.700;23.360;2023-04-07T04:15:04;95043.72;;;0.85;100.00
3096;BME280;1558;42.700;23.360;2023-04-07T04:17:32;95068.59;;;0.94;100.00
3096;BME280;1558;42.700;23.360;2023-04-07T04:20:01;95065.72;;;0.86;100.00
3096;BME280;1558;42.700;23.360;2023-04-07T04:22:29;95072.41;;;0.83;100.00
3096;BME280;1558;42.700;23.360;2023-04-07T04:24:58;95071.31;;;0.84;100.00
3096;BME280;1558;42.700;23.360;2023-04-07T04:27:26;95080.03;;;0.90;100.00
3096;BME280;1558;42.700;23.360;2023-04-07T04:29:54;95068.31;;;0.96;100.00
3096;BME280;1558;42.700;23.360;2023-04-07T04:32:22;95084.47;;;1.04;100.00
3096;BME280;1558;42.700;23.360;2023-04-07T04:34:51;95080.97;;;1.09;100.00
3096;BME280;1558;42.700;23.360;2023-04-07T04:37:20;95081.16;;;1.17;100.00
3096;BME280;1558;42.700;23.360;2023-04-07T04:39:48;95085.88;;;1.25;100.00
3096;BME280;1558;42.700;23.360;2023-04-07T04:42:16;95090.03;;;1.36;100.00
3096;BME280;1558;42.700;23.360;2023-04-07T04:44:44;95093.00;;;1.30;100.00
3096;BME280;1558;42.700;23.360;2023-04-07T04:47:12;95091.41;;;1.29;100.00
3096;BME280;1558;42.700;23.360;2023-04-07T04:49:41;95047.59;;;0.98;100.00
3096;BME280;1558;42.700;23.360;2023-04-07T04:52:09;95088.88;;;1.48;100.00
3096;BME280;1558;42.700;23.360;2023-04-07T04:54:38;95089.34;;;1.55;100.00
3096;BME280;1558;42.700;23.360;2023-04-07T04:57:06;95096.16;;;1.66;100.00
3096;BME280;1558;42.700;23.360;2023-04-07T04:59:34;95102.72;;;1.73;100.00
3096;BME280;1558;42.700;23.360;2023-04-07T05:02:02;95100.81;;;1.79;100.00
3096;BME280;1558;42.700;23.360;2023-04-07T05:04:30;95094.94;;;1.82;100.00
3096;BME280;1558;42.700;23.360;2023-04-07T05:06:59;95105.72;;;1.90;100.00
3096;BME280;1558;42.700;23.360;2023-04-07T05:09:27;95105.69;;;1.95;100.00
3096;BME280;1558;42.700;23.360;2023-04-07T05:11:56;95102.88;;;2.11;100.00
3096;BME280;1558;42.700;23.360;2023-04-07T05:14:24;95098.03;;;1.89;100.00
3096;BME280;1558;42.700;23.360;2023-04-07T05:16:52;95090.13;;;2.08;100.00
3096;BME280;1558;42.700;23.360;2023-04-07T05:19:20;95117.31;;;2.28;100.00
3096;BME280;1558;42.700;23.360;2023-04-07T05:21:48;95113.41;;;2.21;100.00
3096;BME280;1558;42.700;23.360;2023-04-07T05:24:17;95120.53;;;2.01;99.76
3096;BME280;1558;42.700;23.360;2023-04-07T05:26:45;95115.44;;;2.29;100.00
3096;BME280;1558;42.700;23.360;2023-04-07T05:29:14;95117.28;;;2.52;99.72
3096;BME280;1558;42.700;23.360;2023-04-07T05:31:42;95120.25;;;2.69;98.39
3096;BME280;1558;42.700;23.360;2023-04-07T05:34:19;95105.16;;;2.83;97.44
3096;BME280;1558;42.700;23.360;2023-04-07T05:36:47;95114.00;;;2.97;95.14
3096;BME280;1558;42.700;23.360;2023-04-07T05:39:29;95047.13;;;2.43;94.67
3096;BME280;1558;42.700;23.360;2023-04-07T05:41:58;95132.00;;;2.87;93.45
3096;BME280;1558;42.700;23.360;2023-04-07T05:44:28;95128.03;;;2.65;94.21
3096;BME280;1558;42.700;23.360;2023-04-07T05:46:56;95119.38;;;2.55;93.97
3096;BME280;1558;42.700;23.360;2023-04-07T05:49:24;95114.88;;;2.74;96.52
3096;BME280;1558;42.700;23.360;2023-04-07T05:51:52;95107.03;;;2.83;95.99
3096;BME280;1558;42.700;23.360;2023-04-07T05:54:20;95123.03;;;3.01;95.37
3096;BME280;1558;42.700;23.360;2023-04-07T05:56:48;95122.28;;;3.14;94.30
3096;BME280;1558;42.700;23.360;2023-04-07T05:59:16;95123.13;;;3.28;94.29
3096;BME280;1558;42.700;23.360;2023-04-07T06:01:46;95131.38;;;3.13;93.31
3096;BME280;1558;42.700;23.360;2023-04-07T06:04:14;95059.09;;;2.64;94.45
3096;BME280;1558;42.700;23.360;2023-04-07T06:06:42;95122.50;;;3.18;95.20
3096;BME280;1558;42.700;23.360;2023-04-07T06:09:10;95123.31;;;3.18;93.93
3096;BME280;1558;42.700;23.360;2023-04-07T06:11:38;95119.41;;;3.29;94.09
3096;BME280;1558;42.700;23.360;2023-04-07T06:14:06;95082.13;;;3.11;93.66
3096;BME280;1558;42.700;23.360;2023-04-07T06:16:34;95116.97;;;4.11;94.36
3096;BME280;1558;42.700;23.360;2023-04-07T06:19:05;95116.88;;;4.57;90.35
3096;BME280;1558;42.700;23.360;2023-04-07T06:21:35;95086.31;;;5.12;88.71
3096;BME280;1558;42.700;23.360;2023-04-07T06:24:03;95115.47;;;5.44;84.43
3096;BME280;1558;42.700;23.360;2023-04-07T06:26:32;95117.63;;;5.78;80.73
3096;BME280;1558;42.700;23.360;2023-04-07T06:29:00;95107.44;;;6.42;77.63
3096;BME280;1558;42.700;23.360;2023-04-07T06:31:28;95105.50;;;6.90;72.71
3096;BME280;1558;42.700;23.360;2023-04-07T06:33:56;95087.88;;;7.66;68.69
3096;BME280;1558;42.700;23.360;2023-04-07T06:36:26;95106.00;;;7.95;66.38
3096;BME280;1558;42.700;23.360;2023-04-07T06:38:54;95111.03;;;8.05;63.23
3096;BME280;1558;42.700;23.360;2023-04-07T06:41:23;95111.63;;;8.19;61.56
3096;BME280;1558;42.700;23.360;2023-04-07T06:43:53;95116.69;;;8.03;59.84
3096;BME280;1558;42.700;23.360;2023-04-07T06:46:21;95092.88;;;7.85;61.11
3096;BME280;1558;42.700;23.360;2023-04-07T06:48:49;95112.94;;;8.59;60.39
3096;BME280;1558;42.700;23.360;2023-04-07T06:51:17;95107.34;;;9.23;60.43
3096;BME280;1558;42.700;23.360;2023-04-07T06:53:46;95100.38;;;9.63;57.70
3096;BME280;1558;42.700;23.360;2023-04-07T06:56:15;95098.94;;;9.98;55.07
3096;BME280;1558;42.700;23.360;2023-04-07T06:58:43;95108.47;;;9.42;54.48
3096;BME280;1558;42.700;23.360;2023-04-07T07:01:11;95111.88;;;10.26;55.12
3096;BME280;1558;42.700;23.360;2023-04-07T07:03:39;95110.16;;;10.78;53.51
3096;BME280;1558;42.700;23.360;2023-04-07T07:06:07;95117.97;;;10.47;51.44
3096;BME280;1558;42.700;23.360;2023-04-07T07:08:37;95109.84;;;10.02;51.08
3096;BME280;1558;42.700;23.360;2023-04-07T07:11:06;95120.25;;;10.57;52.01
3096;BME280;1558;42.700;23.360;2023-04-07T07:13:35;95108.25;;;11.54;51.20
3096;BME280;1558;42.700;23.360;2023-04-07T07:16:03;95117.03;;;11.51;49.80
3096;BME280;1558;42.700;23.360;2023-04-07T07:18:31;95109.91;;;11.31;48.40
3096;BME280;1558;42.700;23.360;2023-04-07T07:21:01;95114.72;;;9.55;49.80
3096;BME280;1558;42.700;23.360;2023-04-07T07:23:30;95085.78;;;8.81;52.10
3096;BME280;1558;42.700;23.360;2023-04-07T07:25:58;95123.59;;;9.06;52.88
3096;BME280;1558;42.700;23.360;2023-04-07T07:28:27;95122.28;;;8.91;53.37
3096;BME280;1558;42.700;23.360;2023-04-07T07:30:55;95125.84;;;8.28;54.29
3096;BME280;1558;42.700;23.360;2023-04-07T07:33:23;95133.44;;;8.09;54.76
3096;BME280;1558;42.700;23.360;2023-04-07T07:35:51;95131.00;;;7.70;56.27
3096;BME280;1558;42.700;23.360;2023-04-07T07:38:19;95132.22;;;7.64;58.62
3096;BME280;1558;42.700;23.360;2023-04-07T07:40:48;95138.56;;;7.59;58.13
3096;BME280;1558;42.700;23.360;2023-04-07T07:43:16;95142.03;;;7.77;58.99
3096;BME280;1558;42.700;23.360;2023-04-07T07:45:46;95145.19;;;7.62;59.25
3096;BME280;1558;42.700;23.360;2023-04-07T07:48:14;95138.88;;;7.58;60.12
3096;BME280;1558;42.700;23.360;2023-04-07T07:50:44;95128.44;;;7.90;59.77
3096;BME280;1558;42.700;23.360;2023-04-07T07:53:13;95141.34;;;8.14;58.58
3096;BME280;1558;42.700;23.360;2023-04-07T07:55:41;95137.25;;;8.08;57.48
3096;BME280;1558;42.700;23.360;2023-04-07T07:58:09;95122.25;;;7.98;58.28
3096;BME280;1558;42.700;23.360;2023-04-07T08:00:37;95127.91;;;8.31;56.66
3096;BME280;1558;42.700;23.360;2023-04-07T08:03:07;95127.13;;;8.68;54.02
3096;BME280;1558;42.700;23.360;2023-04-07T08:05:35;95129.28;;;8.75;51.47
3096;BME280;1558;42.700;23.360;2023-04-07T08:08:03;95111.38;;;8.88;51.81
3096;BME280;1558;42.700;23.360;2023-04-07T08:10:31;95123.31;;;8.99;50.73
3096;BME280;1558;42.700;23.360;2023-04-07T08:12:59;95134.78;;;8.58;50.75
3096;BME280;1558;42.700;23.360;2023-04-07T08:15:27;95134.91;;;8.61;50.13
3096;BME280;1558;42.700;23.360;2023-04-07T08:17:55;95134.78;;;8.58;49.46
3096;BME280;1558;42.700;23.360;2023-04-07T08:20:27;95134.78;;;8.58;49.52
3096;BME280;1558;42.700;23.360;2023-04-07T08:22:55;95140.16;;;8.58;49.70
3096;BME280;1558;42.700;23.360;2023-04-07T08:25:23;95123.78;;;8.71;49.79
3096;BME280;1558;42.700;23.360;2023-04-07T08:27:51;95127.13;;;8.68;48.41
3096;BME280;1558;42.700;23.360;2023-04-07T08:30:19;95139.47;;;8.61;49.44
3096;BME280;1558;42.700;23.360;2023-04-07T08:32:48;95140.56;;;8.68;49.44
3096;BME280;1558;42.700;23.360;2023-04-07T08:35:16;95131.56;;;8.64;48.18
3096;BME280;1558;42.700;23.360;2023-04-07T08:37:45;95132.00;;;8.29;48.31
3096;BME280;1558;42.700;23.360;2023-04-07T08:40:14;95134.38;;;8.22;49.18
3096;BME280;1558;42.700;23.360;2023-04-07T08:42:45;95081.19;;;7.89;49.95
3096;BME280;1558;42.700;23.360;2023-04-07T08:45:16;95132.00;;;8.29;49.68
3096;BME280;1558;42.700;23.360;2023-04-07T08:47:46;95115.38;;;8.35;49.04
3096;BME280;1558;42.700;23.360;2023-04-07T08:50:16;95117.63;;;8.71;48.79
3096;BME280;1558;42.700;23.360;2023-04-07T08:52:53;95126.84;;;9.20;47.16
3096;BME280;1558;42.700;23.360;2023-04-07T08:55:21;95124.25;;;10.27;47.75
3096;BME280;1558;42.700;23.360;2023-04-07T08:57:50;95124.81;;;10.44;45.54
3096;BME280;1558;42.700;23.360;2023-04-07T09:00:19;95132.38;;;9.85;44.87
3096;BME280;1558;42.700;23.360;2023-04-07T09:02:48;95129.28;;;9.75;45.60
3096;BME280;1558;42.700;23.360;2023-04-07T09:05:17;95131.38;;;9.28;45.21
3096;BME280;1558;42.700;23.360;2023-04-07T09:07:48;95125.06;;;9.65;46.39
3096;BME280;1558;42.700;23.360;2023-04-07T09:10:16;95134.13;;;9.61;45.96
3096;BME280;1558;42.700;23.360;2023-04-07T09:12:44;95086.34;;;8.96;45.35
3096;BME280;1558;42.700;23.360;2023-04-07T09:15:13;95141.88;;;9.21;46.24
3096;BME280;1558;42.700;23.360;2023-04-07T09:17:42;95143.56;;;9.25;46.33
3096;BME280;1558;42.700;23.360;2023-04-07T09:20:10;95120.63;;;10.02;46.42
3096;BME280;1558;42.700;23.360;2023-04-07T09:22:39;95113.72;;;10.13;45.69
3096;BME280;1558;42.700;23.360;2023-04-07T09:25:13;95127.44;;;10.20;45.13
3096;BME280;1558;42.700;23.360;2023-04-07T09:27:56;95127.44;;;10.77;45.34
3096;BME280;1558;42.700;23.360;2023-04-07T09:30:25;95126.13;;;11.07;43.79
3096;BME280;1558;42.700;23.360;2023-04-07T09:32:53;95121.81;;;11.18;43.76
3096;BME280;1558;42.700;23.360;2023-04-07T09:35:21;95129.53;;;11.44;43.02
3096;BME280;1558;42.700;23.360;2023-04-07T09:38:00;95060.13;;;10.56;42.32
3096;BME280;1558;42.700;23.360;2023-04-07T09:40:31;95132.59;;;10.70;43.67
3096;BME280;1558;42.700;23.360;2023-04-07T09:43:00;95131.63;;;10.30;44.20
3096;BME280;1558;42.700;23.360;2023-04-07T09:45:29;95128.59;;;9.98;44.08
3096;BME280;1558;42.700;23.360;2023-04-07T09:48:04;95138.25;;;9.99;44.08
3096;BME280;1558;42.700;23.360;2023-04-07T09:50:34;95128.88;;;10.05;44.22
3096;BME280;1558;42.700;23.360;2023-04-07T09:53:02;95103.53;;;9.86;45.15
3096;BME280;1558;42.700;23.360;2023-04-07T09:55:32;95140.38;;;10.14;45.55
3096;BME280;1558;42.700;23.360;2023-04-07T09:58:01;95106.31;;;9.57;45.62
3096;BME280;1558;42.700;23.360;2023-04-07T10:00:32;95142.94;;;9.90;44.79
3096;BME280;1558;42.700;23.360;2023-04-07T10:03:00;95148.56;;;10.63;44.55
3096;BME280;1558;42.700;23.360;2023-04-07T10:05:30;95093.28;;;10.93;44.14
3096;BME280;1558;42.700;23.360;2023-04-07T10:07:59;95141.81;;;11.41;43.95
3096;BME280;1558;42.700;23.360;2023-04-07T10:10:29;95141.16;;;11.20;43.57
3096;BME280;1558;42.700;23.360;2023-04-07T10:13:00;95147.25;;;10.93;44.26
3096;BME280;1558;42.700;23.360;2023-04-07T10:15:32;95145.84;;;10.51;44.89
3096;BME280;1558;42.700;23.360;2023-04-07T10:18:03;95139.13;;;10.57;45.47
3096;BME280;1558;42.700;23.360;2023-04-07T10:20:35;95140.16;;;10.76;45.51
3096;BME280;1558;42.700;23.360;2023-04-07T10:23:16;95140.91;;;10.41;45.61
3096;BME280;1558;42.700;23.360;2023-04-07T10:25:46;95146.69;;;10.31;46.05
3096;BME280;1558;42.700;23.360;2023-04-07T10:28:20;94976.88;;;9.08;45.82
3096;BME280;1558;42.700;23.360;2023-04-07T10:30:50;95136.53;;;10.15;46.68
3096;BME280;1558;42.700;23.360;2023-04-07T10:33:43;95133.13;;;10.06;46.49
3096;BME280;1558;42.700;23.360;2023-04-07T10:36:12;95149.59;;;9.72;46.93
3096;BME280;1558;42.700;23.360;2023-04-07T10:38:40;95150.09;;;9.66;47.86
3096;BME280;1558;42.700;23.360;2023-04-07T10:41:30;95150.72;;;9.50;48.17
3096;BME280;1558;42.700;23.360;2023-04-07T10:44:00;95152.41;;;9.55;48.06
3096;BME280;1558;42.700;23.360;2023-04-07T10:49:36;95139.72;;;9.76;48.61
3096;BME280;1558;42.700;23.360;2023-04-07T10:52:23;95145.78;;;10.06;48.72
3096;BME280;1558;42.700;23.360;2023-04-07T10:55:28;95152.31;;;10.05;48.48
3096;BME280;1558;42.700;23.360;2023-04-07T10:58:24;95142.28;;;9.31;48.24
3096;BME280;1558;42.700;23.360;2023-04-07T11:01:25;95177.28;;;9.31;48.67
3096;BME280;1558;42.700;23.360;2023-04-07T11:03:56;95158.44;;;9.52;49.04
3096;BME280;1558;42.700;23.360;2023-04-07T11:06:25;95157.88;;;9.67;48.79
3096;BME280;1558;42.700;23.360;2023-04-07T11:08:53;95161.97;;;9.44;47.81
3096;BME280;1558;42.700;23.360;2023-04-07T11:11:36;95169.88;;;9.49;48.04
3096;BME280;1558;42.700;23.360;2023-04-07T11:14:05;95102.13;;;9.26;48.64
3096;BME280;1558;42.700;23.360;2023-04-07T11:16:37;95167.44;;;9.56;48.24
3096;BME280;1558;42.700;23.360;2023-04-07T11:19:05;95166.59;;;9.64;48.72
3096;BME280;1558;42.700;23.360;2023-04-07T11:21:34;95158.44;;;9.52;48.75
3096;BME280;1558;42.700;23.360;2023-04-07T11:24:02;95168.69;;;9.59;49.64
3096;BME280;1558;42.700;23.360;2023-04-07T11:26:36;95152.69;;;9.62;48.86
3096;BME280;1558;42.700;23.360;2023-04-07T11:29:06;95163.84;;;9.93;49.34
3096;BME280;1558;42.700;23.360;2023-04-07T11:31:37;95154.66;;;9.74;48.80
3096;BME280;1558;42.700;23.360;2023-04-07T11:34:06;95155.53;;;9.98;48.91
3096;BME280;1558;42.700;23.360;2023-04-07T11:36:37;95167.16;;;10.32;49.00
3096;BME280;1558;42.700;23.360;2023-04-07T11:39:17;95165.53;;;10.18;48.33
3096;BME280;1558;42.700;23.360;2023-04-07T11:41:47;95159.03;;;9.78;48.75
3096;BME280;1558;42.700;23.360;2023-04-07T11:44:16;95180.66;;;9.90;49.18
3096;BME280;1558;42.700;23.360;2023-04-07T11:46:55;95172.97;;;9.80;48.92
3096;BME280;1558;42.700;23.360;2023-04-07T11:49:25;95172.38;;;9.95;48.91
3096;BME280;1558;42.700;23.360;2023-04-07T11:51:59;95165.03;;;9.84;48.35
3096;BME280;1558;42.700;23.360;2023-04-07T11:54:38;95156.34;;;9.58;48.50
3096;BME280;1558;42.700;23.360;2023-04-07T11:57:06;95168.97;;;9.86;49.71
3096;BME280;1558;42.700;23.360;2023-04-07T11:59:38;95174.22;;;9.83;50.14
3096;BME280;1558;42.700;23.360;2023-04-07T12:02:07;95171.44;;;9.91;51.01
3096;BME280;1558;42.700;23.360;2023-04-07T12:04:36;95166.81;;;10.33;50.94
3096;BME280;1558;42.700;23.360;2023-04-07T12:07:08;95149.03;;;10.77;49.73
3096;BME280;1558;42.700;23.360;2023-04-07T12:09:39;95163.38;;;11.66;48.13
3096;BME280;1558;42.700;23.360;2023-04-07T12:12:07;95162.59;;;12.17;47.04
3096;BME280;1558;42.700;23.360;2023-04-07T12:14:36;95155.38;;;13.27;45.01
3096;BME280;1558;42.700;23.360;2023-04-07T12:17:05;95167.41;;;12.67;43.39
3096;BME280;1558;42.700;23.360;2023-04-07T12:19:37;95158.09;;;12.09;44.86
3096;BME280;1558;42.700;23.360;2023-04-07T12:22:05;95169.44;;;12.42;44.50
3096;BME280;1558;42.700;23.360;2023-04-07T12:24:35;95165.41;;;11.81;44.81
3096;BME280;1558;42.700;23.360;2023-04-07T12:27:03;95131.72;;;11.26;46.28
3096;BME280;1558;42.700;23.360;2023-04-07T12:29:32;95144.47;;;11.78;46.61
3096;BME280;1558;42.700;23.360;2023-04-07T12:32:01;95171.63;;;11.45;45.95
3096;BME280;1558;42.700;23.360;2023-04-07T12:34:29;95175.03;;;11.18;46.74
3096;BME280;1558;42.700;23.360;2023-04-07T12:36:58;95146.88;;;11.55;45.68
3096;BME280;1558;42.700;23.360;2023-04-07T12:39:26;95156.34;;;11.25;46.23
3096;BME280;1558;42.700;23.360;2023-04-07T12:41:54;95152.66;;;10.81;46.72
3096;BME280;1558;42.700;23.360;2023-04-07T12:44:23;95165.13;;;10.98;47.06
3096;BME280;1558;42.700;23.360;2023-04-07T12:46:54;95137.97;;;10.46;47.24
3096;BME280;1558;42.700;23.360;2023-04-07T12:49:22;95165.50;;;10.51;47.33
3096;BME280;1558;42.700;23.360;2023-04-07T12:51:50;95168.34;;;10.55;47.65
3096;BME280;1558;42.700;23.360;2023-04-07T12:54:20;95150.59;;;10.66;47.64
3096;BME280;1558;42.700;23.360;2023-04-07T12:56:48;95149.59;;;10.26;47.98
3096;BME280;1558;42.700;23.360;2023-04-07T12:59:17;95160.72;;;10.03;48.69
3096;BME280;1558;42.700;23.360;2023-04-07T13:01:45;95170.41;;;9.84;49.43
3096;BME280;1558;42.700;23.360;2023-04-07T13:04:16;95171.59;;;9.74;50.12
3096;BME280;1558;42.700;23.360;2023-04-07T13:06:45;95175.84;;;9.34;50.27
3096;BME280;1558;42.700;23.360;2023-04-07T13:09:14;95183.91;;;9.34;50.85
3096;BME280;1558;42.700;23.360;2023-04-07T13:11:43;95175.13;;;9.66;50.12
3096;BME280;1558;42.700;23.360;2023-04-07T13:14:12;95179.06;;;9.89;49.92
3096;BME280;1558;42.700;23.360;2023-04-07T13:16:40;95176.66;;;10.17;49.83
3096;BME280;1558;42.700;23.360;2023-04-07T13:19:09;95169.00;;;9.98;49.38
3096;BME280;1558;42.700;23.360;2023-04-07T13:21:37;95153.47;;;9.83;49.32
3096;BME280;1558;42.700;23.360;2023-04-07T13:24:08;95175.53;;;9.97;49.31
3096;BME280;1558;42.700;23.360;2023-04-07T13:26:36;95172.88;;;10.09;49.78
3096;BME280;1558;42.700;23.360;2023-04-07T13:29:06;95171.53;;;9.83;50.06
3096;BME280;1558;42.700;23.360;2023-04-07T13:31:34;95136.19;;;9.64;50.15